sensor_id;sensor_type;location;lat;lon;timestamp;P1;durP1;ratioP1;P2;durP2;ratioP2
77415;SDS011;66489;49.230;8.520;2023-04-07T14:39:37;5.63;;;4.40;;
77415;SDS011;66489;49.230;8.520;2023-04-07T14:42:04;5.30;;;4.80;;
77415;SDS011;66489;49.230;8.520;2023-04-07T14:44:31;4.40;;;3.97;;
77415;SDS011;66489;49.230;8.520;2023-04-07T14:46:58;5.30;;;4.80;;
77415;SDS011;66489;49.230;8.520;2023-04-07T14:49:25;5.38;;;4.72;;
77415;SDS011;66489;49.230;8.520;2023-04-07T14:51:53;6.30;;;5.15;;
77415;SDS011;66489;49.230;8.520;2023-04-07T14:54:20;6.75;;;5.22;;
77415;SDS011;66489;49.230;8.520;2023-04-07T14:56:46;6.38;;;5.10;;
77415;SDS011;66489;49.230;8.520;2023-04-07T14:59:13;5.85;;;4.78;;
77415;SDS011;66489;49.230;8.520;2023-04-07T15:01:40;6.25;;;4.90;;
77415;SDS011;66489;49.230;8.520;2023-04-07T15:04:06;5.78;;;5.18;;
77415;SDS011;66489;49.230;8.520;2023-04-07T15:06:33;7.32;;;5.57;;
77415;SDS011;66489;49.230;8.520;2023-04-07T15:09:00;9.45;;;7.60;;
77415;SDS011;66489;49.230;8.520;2023-04-07T15:11:26;5.20;;;4.30;;
77415;SDS011;66489;49.230;8.520;2023-04-07T15:13:53;4.65;;;4.03;;
77415;SDS011;66489;49.230;8.520;2023-04-07T15:16:20;5.95;;;4.25;;
77415;SDS011;66489;49.230;8.520;2023-04-07T15:18:46;5.10;;;4.22;;
77415;SDS011;66489;49.230;8.520;2023-04-07T15:21:13;5.63;;;4.78;;
77415;SDS011;66489;49.230;8.520;2023-04-07T15:23:40;4.88;;;4.28;;
77415;SDS011;66489;49.230;8.520;2023-04-07T15:26:07;5.72;;;4.60;;
77415;SDS011;66489;49.230;8.520;2023-04-07T15:28:34;6.75;;;5.68;;
77415;SDS011;66489;49.230;8.520;2023-04-07T15:31:01;6.55;;;5.40;;
77415;SDS011;66489;49.230;8.520;2023-04-07T15:33:28;7.15;;;5.35;;
77415;SDS011;66489;49.230;8.520;2023-04-07T15:35:54;6.38;;;5.30;;
77415;SDS011;66489;49.230;8.520;2023-04-07T15:38:21;7.55;;;5.78;;
77415;SDS011;66489;49.230;8.520;2023-04-07T15:40:48;6.90;;;5.25;;
77415;SDS011;66489;49.230;8.520;2023-04-07T15:43:14;9.32;;;6.97;;
77415;SDS011;66489;49.230;8.520;2023-04-07T15:45:42;6.63;;;5.22;;
77415;SDS011;66489;49.230;8.520;2023-04-07T15:48:10;6.78;;;5.15;;
77415;SDS011;66489;49.230;8.520;2023-04-07T15:50:36;9.32;;;6.70;;
77415;SDS011;66489;49.230;8.520;2023-04-07T15:53:03;7.53;;;5.82;;
77415;SDS011;66489;49.230;8.520;2023-04-07T15:55:30;7.93;;;6.10;;
77415;SDS011;66489;49.230;8.520;2023-04-07T15:58:01;7.22;;;5.85;;
77415;SDS011;66489;49.230;8.520;2023-04-07T16:00:32;6.80;;;5.50;;
77415;SDS011;66489;49.230;8.520;2023-04-07T16:03:00;5.82;;;4.78;;
77415;SDS011;66489;49.230;8.520;2023-04-07T16:05:27;4.85;;;4.28;;
77415;SDS011;66489;49.230;8.520;2023-04-07T16:07:54;6.25;;;4.30;;
77415;SDS011;66489;49.230;8.520;2023-04-07T16:10:21;6.13;;;5.05;;
77415;SDS011;66489;49.230;8.520;2023-04-07T16:12:47;5.13;;;4.63;;
77415;SDS011;66489;49.230;8.520;2023-04-07T16:15:14;6.95;;;4.57;;
77415;SDS011;66489;49.230;8.520;2023-04-07T16:17:51;7.82;;;4.50;;
77415;SDS011;66489;49.230;8.520;2023-04-07T16:20:18;6.68;;;4.82;;
77415;SDS011;66489;49.230;8.520;2023-04-07T16:22:45;7.55;;;4.97;;
77415;SDS011;66489;49.230;8.520;2023-04-07T16:25:13;6.60;;;5.20;;
77415;SDS011;66489;49.230;8.520;2023-04-07T16:28:00;6.95;;;4.40;;
77415;SDS011;66489;49.230;8.520;2023-04-07T16:30:27;8.95;;;5.53;;
77415;SDS011;66489;49.230;8.520;2023-04-07T16:32:54;8.15;;;5.90;;
77415;SDS011;66489;49.230;8.520;2023-04-07T16:35:20;7.78;;;5.90;;
77415;SDS011;66489;49.230;8.520;2023-04-07T16:37:47;8.23;;;6.22;;
77415;SDS011;66489;49.230;8.520;2023-04-07T16:40:15;9.50;;;6.97;;
77415;SDS011;66489;49.230;8.520;2023-04-07T16:42:42;9.75;;;7.38;;
77415;SDS011;66489;49.230;8.520;2023-04-07T16:45:08;8.27;;;6.43;;
77415;SDS011;66489;49.230;8.520;2023-04-07T16:47:36;10.90;;;6.45;;
77415;SDS011;66489;49.230;8.520;2023-04-07T16:50:03;8.30;;;6.13;;
77415;SDS011;66489;49.230;8.520;2023-04-07T16:52:30;9.30;;;6.90;;
77415;SDS011;66489;49.230;8.520;2023-04-07T16:54:57;7.88;;;6.35;;
77415;SDS011;66489;49.230;8.520;2023-04-07T16:57:24;7.63;;;6.03;;
77415;SDS011;66489;49.230;8.520;2023-04-07T16:59:50;8.45;;;6.10;;
77415;SDS011;66489;49.230;8.520;2023-04-07T17:02:17;8.52;;;6.30;;
77415;SDS011;66489;49.230;8.520;2023-04-07T17:04:44;8.88;;;6.50;;
77415;SDS011;66489;49.230;8.520;2023-04-07T17:07:11;9.25;;;6.25;;
77415;SDS011;66489;49.230;8.520;2023-04-07T17:09:37;7.93;;;5.63;;
77415;SDS011;66489;49.230;8.520;2023-04-07T17:12:04;9.20;;;6.68;;
77415;SDS011;66489;49.230;8.520;2023-04-07T17:14:31;7.63;;;5.95;;
77415;SDS011;66489;49.230;8.520;2023-04-07T17:16:58;7.93;;;5.95;;
77415;SDS011;66489;49.230;8.520;2023-04-07T17:19:25;8.38;;;5.82;;
77415;SDS011;66489;49.230;8.520;2023-04-07T17:21:51;7.22;;;5.70;;
77415;SDS011;66489;49.230;8.520;2023-04-07T17:24:18;6.07;;;5.03;;
77415;SDS011;66489;49.230;8.520;2023-04-07T17:26:44;7.78;;;5.88;;
77415;SDS011;66489;49.230;8.520;2023-04-07T17:29:15;7.30;;;5.88;;
77415;SDS011;66489;49.230;8.520;2023-04-07T17:31:42;6.00;;;5.10;;
77415;SDS011;66489;49.230;8.520;2023-04-07T17:34:09;5.97;;;4.97;;
77415;SDS011;66489;49.230;8.520;2023-04-07T17:36:36;6.30;;;4.80;;
77415;SDS011;66489;49.230;8.520;2023-04-07T17:39:03;5.00;;;4.25;;
77415;SDS011;66489;49.230;8.520;2023-04-07T17:41:33;5.85;;;4.60;;
77415;SDS011;66489;49.230;8.520;2023-04-07T17:44:00;5.43;;;4.70;;
77415;SDS011;66489;49.230;8.520;2023-04-07T17:46:27;6.43;;;4.65;;
77415;SDS011;66489;49.230;8.520;2023-04-07T17:48:54;5.50;;;4.43;;
77415;SDS011;66489;49.230;8.520;2023-04-07T17:51:24;5.40;;;4.10;;
77415;SDS011;66489;49.230;8.520;2023-04-07T17:53:52;4.93;;;3.80;;
77415;SDS011;66489;49.230;8.520;2023-04-07T17:56:19;5.65;;;4.10;;
77415;SDS011;66489;49.230;8.520;2023-04-07T17:58:46;5.57;;;3.90;;
77415;SDS011;66489;49.230;8.520;2023-04-07T18:01:13;4.97;;;3.70;;
77415;SDS011;66489;49.230;8.520;2023-04-07T18:03:41;5.15;;;4.13;;
77415;SDS011;66489;49.230;8.520;2023-04-07T18:06:07;5.88;;;4.00;;
77415;SDS011;66489;49.230;8.520;2023-04-07T18:08:34;5.63;;;3.95;;
77415;SDS011;66489;49.230;8.520;2023-04-07T18:11:01;4.95;;;3.88;;
77415;SDS011;66489;49.230;8.520;2023-04-07T18:13:31;5.90;;;4.20;;
77415;SDS011;66489;49.230;8.520;2023-04-07T18:15:59;6.35;;;4.32;;
77415;SDS011;66489;49.230;8.520;2023-04-07T18:18:26;10.13;;;6.70;;
77415;SDS011;66489;49.230;8.520;2023-04-07T18:20:52;18.00;;;11.88;;
77415;SDS011;66489;49.230;8.520;2023-04-07T18:23:19;14.23;;;8.90;;
77415;SDS011;66489;49.230;8.520;2023-04-07T18:25:45;20.00;;;12.88;;
77415;SDS011;66489;49.230;8.520;2023-04-07T18:28:12;10.35;;;7.93;;
77415;SDS011;66489;49.230;8.520;2023-04-07T18:30:39;9.27;;;7.30;;
77415;SDS011;66489;49.230;8.520;2023-04-07T18:33:05;6.72;;;5.13;;
77415;SDS011;66489;49.230;8.520;2023-04-07T18:35:32;7.15;;;5.72;;
77415;SDS011;66489;49.230;8.520;2023-04-07T18:37:59;6.78;;;5.05;;
77415;SDS011;66489;49.230;8.520;2023-04-07T18:40:26;8.20;;;5.63;;
77415;SDS011;66489;49.230;8.520;2023-04-07T18:42:55;7.53;;;5.38;;
77415;SDS011;66489;49.230;8.520;2023-04-07T18:45:21;7.38;;;5.65;;
77415;SDS011;66489;49.230;8.520;2023-04-07T18:47:48;7.68;;;5.25;;
77415;SDS011;66489;49.230;8.520;2023-04-07T18:50:14;6.45;;;4.50;;
77415;SDS011;66489;49.230;8.520;2023-04-07T18:52:41;7.80;;;4.28;;
77415;SDS011;66489;49.230;8.520;2023-04-07T18:55:08;7.05;;;4.47;;
77415;SDS011;66489;49.230;8.520;2023-04-07T18:57:36;5.90;;;4.60;;
77415;SDS011;66489;49.230;8.520;2023-04-07T19:00:04;13.35;;;8.25;;
77415;SDS011;66489;49.230;8.520;2023-04-07T19:02:31;22.65;;;13.40;;
77415;SDS011;66489;49.230;8.520;2023-04-07T19:04:58;17.88;;;10.63;;
77415;SDS011;66489;49.230;8.520;2023-04-07T19:07:25;24.25;;;15.50;;
77415;SDS011;66489;49.230;8.520;2023-04-07T19:09:51;15.30;;;10.10;;
77415;SDS011;66489;49.230;8.520;2023-04-07T19:12:19;14.63;;;9.30;;
77415;SDS011;66489;49.230;8.520;2023-04-07T19:14:46;15.57;;;9.25;;
77415;SDS011;66489;49.230;8.520;2023-04-07T19:17:12;16.05;;;10.25;;
77415;SDS011;66489;49.230;8.520;2023-04-07T19:19:39;8.98;;;6.93;;
77415;SDS011;66489;49.230;8.520;2023-04-07T19:22:05;10.15;;;7.32;;
77415;SDS011;66489;49.230;8.520;2023-04-07T19:24:32;10.50;;;6.82;;
77415;SDS011;66489;49.230;8.520;2023-04-07T19:26:59;8.30;;;5.93;;
77415;SDS011;66489;49.230;8.520;2023-04-07T19:29:25;7.78;;;5.63;;
77415;SDS011;66489;49.230;8.520;2023-04-07T19:31:53;7.05;;;5.35;;
77415;SDS011;66489;49.230;8.520;2023-04-07T19:34:22;6.35;;;4.88;;
77415;SDS011;66489;49.230;8.520;2023-04-07T19:36:49;7.43;;;5.07;;
77415;SDS011;66489;49.230;8.520;2023-04-07T19:39:15;6.88;;;5.30;;
77415;SDS011;66489;49.230;8.520;2023-04-07T19:41:42;6.95;;;5.05;;
77415;SDS011;66489;49.230;8.520;2023-04-07T19:44:09;8.40;;;5.40;;
77415;SDS011;66489;49.230;8.520;2023-04-07T19:46:36;6.47;;;5.07;;
77415;SDS011;66489;49.230;8.520;2023-04-07T19:49:02;7.25;;;5.80;;
77415;SDS011;66489;49.230;8.520;2023-04-07T19:51:29;8.95;;;6.35;;
77415;SDS011;66489;49.230;8.520;2023-04-07T19:53:56;8.70;;;6.70;;
77415;SDS011;66489;49.230;8.520;2023-04-07T19:56:23;9.48;;;7.20;;
77415;SDS011;66489;49.230;8.520;2023-04-07T19:58:50;10.75;;;7.68;;
77415;SDS011;66489;49.230;8.520;2023-04-07T20:01:17;10.82;;;7.45;;
77415;SDS011;66489;49.230;8.520;2023-04-07T20:03:44;12.73;;;7.60;;
77415;SDS011;66489;49.230;8.520;2023-04-07T20:06:12;10.98;;;8.20;;
77415;SDS011;66489;49.230;8.520;2023-04-07T20:08:40;10.05;;;7.97;;
77415;SDS011;66489;49.230;8.520;2023-04-07T20:11:07;15.90;;;10.40;;
77415;SDS011;66489;49.230;8.520;2023-04-07T20:13:38;14.13;;;9.57;;
77415;SDS011;66489;49.230;8.520;2023-04-07T20:16:06;8.90;;;6.82;;
77415;SDS011;66489;49.230;8.520;2023-04-07T20:18:53;9.35;;;6.40;;
77415;SDS011;66489;49.230;8.520;2023-04-07T20:21:20;9.23;;;6.50;;
77415;SDS011;66489;49.230;8.520;2023-04-07T20:23:47;7.50;;;5.60;;
77415;SDS011;66489;49.230;8.520;2023-04-07T20:26:13;9.98;;;5.88;;
77415;SDS011;66489;49.230;8.520;2023-04-07T20:28:40;7.55;;;4.93;;
77415;SDS011;66489;49.230;8.520;2023-04-07T20:31:07;7.68;;;5.53;;
77415;SDS011;66489;49.230;8.520;2023-04-07T20:33:34;9.48;;;6.55;;
77415;SDS011;66489;49.230;8.520;2023-04-07T20:36:00;9.15;;;5.65;;
77415;SDS011;66489;49.230;8.520;2023-04-07T20:38:27;9.23;;;6.15;;
77415;SDS011;66489;49.230;8.520;2023-04-07T20:40:54;8.15;;;6.00;;
77415;SDS011;66489;49.230;8.520;2023-04-07T20:43:20;7.65;;;5.95;;
77415;SDS011;66489;49.230;8.520;2023-04-07T20:45:49;8.02;;;6.25;;
77415;SDS011;66489;49.230;8.520;2023-04-07T20:48:17;8.50;;;5.97;;
77415;SDS011;66489;49.230;8.520;2023-04-07T20:50:49;8.20;;;5.80;;
77415;SDS011;66489;49.230;8.520;2023-04-07T20:53:16;7.18;;;5.13;;
77415;SDS011;66489;49.230;8.520;2023-04-07T20:55:43;8.20;;;5.43;;
77415;SDS011;66489;49.230;8.520;2023-04-07T20:58:10;9.23;;;5.38;;
77415;SDS011;66489;49.230;8.520;2023-04-07T21:00:37;7.97;;;5.28;;
77415;SDS011;66489;49.230;8.520;2023-04-07T21:03:03;6.55;;;4.93;;
77415;SDS011;66489;49.230;8.520;2023-04-07T21:05:30;6.65;;;4.80;;
77415;SDS011;66489;49.230;8.520;2023-04-07T21:07:57;6.15;;;4.80;;
77415;SDS011;66489;49.230;8.520;2023-04-07T21:10:23;7.13;;;4.90;;
77415;SDS011;66489;49.230;8.520;2023-04-07T21:12:51;5.63;;;4.40;;
77415;SDS011;66489;49.230;8.520;2023-04-07T21:15:17;6.53;;;4.75;;
77415;SDS011;66489;49.230;8.520;2023-04-07T21:17:44;7.55;;;5.30;;
77415;SDS011;66489;49.230;8.520;2023-04-07T21:20:11;8.55;;;5.72;;
77415;SDS011;66489;49.230;8.520;2023-04-07T21:22:38;7.20;;;5.07;;
77415;SDS011;66489;49.230;8.520;2023-04-07T21:25:04;8.57;;;5.03;;
77415;SDS011;66489;49.230;8.520;2023-04-07T21:27:32;6.68;;;5.00;;
77415;SDS011;66489;49.230;8.520;2023-04-07T21:29:59;7.10;;;5.20;;
77415;SDS011;66489;49.230;8.520;2023-04-07T21:32:29;7.43;;;5.00;;
77415;SDS011;66489;49.230;8.520;2023-04-07T21:34:55;7.90;;;5.22;;
77415;SDS011;66489;49.230;8.520;2023-04-07T21:37:22;7.10;;;5.10;;
77415;SDS011;66489;49.230;8.520;2023-04-07T21:39:51;10.25;;;7.50;;
77415;SDS011;66489;49.230;8.520;2023-04-07T21:42:19;8.00;;;6.15;;
77415;SDS011;66489;49.230;8.520;2023-04-07T21:44:46;9.88;;;5.72;;
77415;SDS011;66489;49.230;8.520;2023-04-07T21:47:13;7.28;;;5.57;;
77415;SDS011;66489;49.230;8.520;2023-04-07T21:49:40;8.13;;;5.45;;
77415;SDS011;66489;49.230;8.520;2023-04-07T21:52:07;8.63;;;5.68;;
77415;SDS011;66489;49.230;8.520;2023-04-07T21:54:33;9.30;;;6.60;;
77415;SDS011;66489;49.230;8.520;2023-04-07T21:57:00;8.30;;;6.10;;
77415;SDS011;66489;49.230;8.520;2023-04-07T21:59:26;10.27;;;6.72;;
77415;SDS011;66489;49.230;8.520;2023-04-07T22:01:56;8.82;;;6.30;;
77415;SDS011;66489;49.230;8.520;2023-04-07T22:04:23;7.68;;;5.35;;
77415;SDS011;66489;49.230;8.520;2023-04-07T22:06:50;7.47;;;5.13;;
77415;SDS011;66489;49.230;8.520;2023-04-07T22:09:16;8.07;;;5.53;;
77415;SDS011;66489;49.230;8.520;2023-04-07T22:11:43;8.02;;;5.90;;
77415;SDS011;66489;49.230;8.520;2023-04-07T22:14:09;9.02;;;5.28;;
77415;SDS011;66489;49.230;8.520;2023-04-07T22:16:36;7.32;;;5.13;;
77415;SDS011;66489;49.230;8.520;2023-04-07T22:19:05;8.48;;;6.05;;
77415;SDS011;66489;49.230;8.520;2023-04-07T22:21:32;8.05;;;5.75;;
77415;SDS011;66489;49.230;8.520;2023-04-07T22:23:58;9.25;;;6.55;;
77415;SDS011;66489;49.230;8.520;2023-04-07T22:26:25;8.82;;;5.80;;
77415;SDS011;66489;49.230;8.520;2023-04-07T22:28:51;8.30;;;6.07;;
77415;SDS011;66489;49.230;8.520;2023-04-07T22:31:18;8.60;;;6.07;;
77415;SDS011;66489;49.230;8.520;2023-04-07T22:33:45;8.52;;;5.85;;
77415;SDS011;66489;49.230;8.520;2023-04-07T22:36:11;10.07;;;6.20;;
77415;SDS011;66489;49.230;8.520;2023-04-07T22:38:38;8.73;;;5.90;;
77415;SDS011;66489;49.230;8.520;2023-04-07T22:41:04;10.10;;;6.20;;
77415;SDS011;66489;49.230;8.520;2023-04-07T22:43:31;8.57;;;6.10;;
77415;SDS011;66489;49.230;8.520;2023-04-07T22:45:57;11.23;;;6.75;;
77415;SDS011;66489;49.230;8.520;2023-04-07T22:48:24;9.75;;;6.65;;
77415;SDS011;66489;49.230;8.520;2023-04-07T22:50:53;9.18;;;6.50;;
77415;SDS011;66489;49.230;8.520;2023-04-07T22:53:20;10.30;;;6.90;;
77415;SDS011;66489;49.230;8.520;2023-04-07T22:55:46;9.25;;;6.53;;
77415;SDS011;66489;49.230;8.520;2023-04-07T22:58:13;8.52;;;6.35;;
77415;SDS011;66489;49.230;8.520;2023-04-07T23:00:40;10.43;;;6.68;;
77415;SDS011;66489;49.230;8.520;2023-04-07T23:03:06;8.80;;;6.32;;
77415;SDS011;66489;49.230;8.520;2023-04-07T23:05:33;9.98;;;7.03;;
77415;SDS011;66489;49.230;8.520;2023-04-07T23:08:00;7.75;;;6.13;;
77415;SDS011;66489;49.230;8.520;2023-04-07T23:10:27;8.15;;;6.15;;
77415;SDS011;66489;49.230;8.520;2023-04-07T23:12:53;8.63;;;6.25;;
77415;SDS011;66489;49.230;8.520;2023-04-07T23:15:20;11.52;;;7.07;;
77415;SDS011;66489;49.230;8.520;2023-04-07T23:17:46;9.70;;;6.80;;
77415;SDS011;66489;49.230;8.520;2023-04-07T23:20:13;10.40;;;6.82;;
77415;SDS011;66489;49.230;8.520;2023-04-07T23:22:39;10.98;;;7.68;;
77415;SDS011;66489;49.230;8.520;2023-04-07T23:25:06;16.77;;;10.68;;
77415;SDS011;66489;49.230;8.520;2023-04-07T23:27:33;18.27;;;11.75;;
77415;SDS011;66489;49.230;8.520;2023-04-07T23:30:00;18.02;;;11.40;;
77415;SDS011;66489;49.230;8.520;2023-04-07T23:32:28;14.30;;;8.45;;
77415;SDS011;66489;49.230;8.520;2023-04-07T23:34:54;13.95;;;9.38;;
77415;SDS011;66489;49.230;8.520;2023-04-07T23:37:21;13.65;;;9.30;;
77415;SDS011;66489;49.230;8.520;2023-04-07T23:39:47;16.25;;;10.15;;
77415;SDS011;66489;49.230;8.520;2023-04-07T23:42:14;15.82;;;9.93;;
77415;SDS011;66489;49.230;8.520;2023-04-07T23:44:41;13.10;;;8.63;;
77415;SDS011;66489;49.230;8.520;2023-04-07T23:47:07;13.30;;;8.55;;
77415;SDS011;66489;49.230;8.520;2023-04-07T23:49:34;13.32;;;8.63;;
77415;SDS011;66489;49.230;8.520;2023-04-07T23:52:01;12.27;;;8.00;;
77415;SDS011;66489;49.230;8.520;2023-04-07T23:56:57;12.13;;;8.30;;
77415;SDS011;66489;49.230;8.520;2023-04-07T23:59:23;12.57;;;7.82;;
